Time;durP1;ratioP1;P1;durP2;ratioP2;P2;SDS_P1;SDS_P2;PMS_P1;PMS_P2;Temp;Humidity;BMP_temperature;BMP_pressure;BME280_temperature;BME280_humidity;BME280_pressure;Samples;Min_cycle;Max_cycle;Signal;HPM_P1;HPM_P2
2022/07/29 00:00:40;;;;;;;4.55;1.95;;;15.60;99.90;;;;;;5014887;28;20036;-95
2022/07/29 00:03:06;;;;;;;4.25;2.10;;;15.60;99.90;;;;;;5032018;28;20044;-91
2022/07/29 00:05:32;;;;;;;3.88;1.70;;;15.50;99.90;;;;;;5002913;28;20041;-92
2022/07/29 00:07:57;;;;;;;4.95;2.13;;;15.60;99.90;;;;;;5044033;28;20121;-92
2022/07/29 00:10:23;;;;;;;4.97;2.30;;;15.60;99.90;;;;;;5021299;28;20102;-92
2022/07/29 00:12:49;;;;;;;5.93;2.15;;;15.60;99.90;;;;;;5002704;28;20045;-94
2022/07/29 00:15:15;;;;;;;5.88;2.05;;;15.60;99.90;;;;;;5018539;28;20045;-96
2022/07/29 00:17:40;;;;;;;5.35;2.00;;;15.60;99.90;;;;;;5020425;28;20119;-93
2022/07/29 00:20:07;;;;;;;5.68;2.33;;;15.60;99.90;;;;;;5033090;28;20045;-91
2022/07/29 00:22:32;;;;;;;4.55;2.00;;;15.60;99.90;;;;;;4994027;28;20092;-89
2022/07/29 00:24:58;;;;;;;5.72;2.30;;;15.50;99.90;;;;;;5016242;28;20092;-90
2022/07/29 00:27:23;;;;;;;6.65;2.55;;;15.50;99.90;;;;;;5019959;28;20128;-94
2022/07/29 00:29:49;;;;;;;5.18;2.10;;;15.50;99.90;;;;;;5002141;28;20646;-93
2022/07/29 00:32:15;;;;;;;5.97;2.40;;;15.50;99.90;;;;;;5029852;28;20042;-94
2022/07/29 00:37:24;;;;;;;4.88;2.25;;;15.50;99.90;;;;;;5014566;28;20041;-95
2022/07/29 00:39:50;;;;;;;5.22;2.47;;;15.50;99.90;;;;;;5003782;28;20391;-92
2022/07/29 00:42:16;;;;;;;5.40;2.40;;;15.40;99.90;;;;;;5011217;28;20462;-93
2022/07/29 00:44:42;;;;;;;5.85;2.50;;;15.40;99.90;;;;;;5001668;28;20041;-91
2022/07/29 00:47:09;;;;;;;5.30;2.30;;;15.40;99.90;;;;;;5019774;28;20461;-92
2022/07/29 00:49:35;;;;;;;5.90;2.53;;;15.40;99.90;;;;;;5012621;28;20044;-92
2022/07/29 00:52:03;;;;;;;5.43;2.50;;;15.40;99.90;;;;;;5028620;28;20364;-89
2022/07/29 00:54:29;;;;;;;5.93;2.63;;;15.30;99.90;;;;;;5031793;28;20136;-91
2022/07/29 00:56:57;;;;;;;6.50;2.40;;;15.30;99.90;;;;;;5028632;28;20128;-94
2022/07/29 00:59:23;;;;;;;5.45;2.33;;;15.30;99.90;;;;;;5028716;28;20041;-90
2022/07/29 01:01:49;;;;;;;5.32;2.35;;;15.30;99.90;;;;;;5019908;28;20055;-91
2022/07/29 01:04:15;;;;;;;6.40;2.70;;;15.30;99.90;;;;;;5010315;28;20034;-92
2022/07/29 01:06:42;;;;;;;6.10;2.50;;;15.30;99.90;;;;;;5011580;28;20140;-94
2022/07/29 01:09:08;;;;;;;6.55;2.58;;;15.30;99.90;;;;;;5009261;28;20056;-92
2022/07/29 01:11:35;;;;;;;6.20;2.58;;;15.30;99.90;;;;;;5016575;28;20498;-91
2022/07/29 01:14:02;;;;;;;5.25;2.42;;;15.30;99.90;;;;;;5019366;28;20048;-91
2022/07/29 01:16:33;;;;;;;5.68;2.28;;;15.30;99.90;;;;;;5002952;28;20183;-91
2022/07/29 01:19:31;;;;;;;5.68;2.65;;;15.30;99.90;;;;;;5030898;28;20095;-94
2022/07/29 01:22:01;;;;;;;6.93;2.50;;;15.30;99.90;;;;;;5007593;28;20042;-89
2022/07/29 01:24:27;;;;;;;7.13;2.55;;;15.30;99.90;;;;;;5009781;28;20538;-94
2022/07/29 01:27:10;;;;;;;4.85;2.38;;;15.30;99.90;;;;;;5001224;28;20486;-89
2022/07/29 01:29:41;;;;;;;5.72;2.80;;;15.30;99.90;;;;;;5012790;28;20438;-94
2022/07/29 01:32:20;;;;;;;;;;;15.30;99.90;;;;;;5001490;28;20041;-92
2022/07/29 01:35:07;;;;;;;4.90;2.53;;;15.20;99.90;;;;;;5029198;28;20369;-92
2022/07/29 01:37:51;;;;;;;5.55;2.25;;;15.30;99.90;;;;;;5022114;28;20083;-92
2022/07/29 01:40:23;;;;;;;5.93;2.42;;;15.30;99.90;;;;;;4994932;28;20128;-92
2022/07/29 01:42:53;;;;;;;7.00;2.78;;;15.30;99.90;;;;;;5026558;28;20045;-93
2022/07/29 01:45:24;;;;;;;5.72;2.35;;;15.30;99.90;;;;;;5039655;28;20160;-91
2022/07/29 01:48:10;;;;;;;6.43;2.65;;;15.30;99.90;;;;;;5019583;28;20061;-91
2022/07/29 01:51:03;;;;;;;4.53;2.30;;;15.30;99.90;;;;;;5006522;28;20410;-92
2022/07/29 01:53:34;;;;;;;5.18;2.35;;;15.20;99.90;;;;;;5008702;28;20078;-90
2022/07/29 01:56:02;;;;;;;6.60;2.50;;;15.30;99.90;;;;;;5017501;28;20075;-90
2022/07/29 01:58:31;;;;;;;7.28;2.50;;;15.30;99.90;;;;;;5010791;28;20355;-88
2022/07/29 02:00:59;;;;;;;6.90;2.50;;;15.20;99.90;;;;;;5009353;28;20045;-90
2022/07/29 02:03:26;;;;;;;5.40;2.40;;;15.20;99.90;;;;;;5012058;28;20049;-92
2022/07/29 02:05:54;;;;;;;4.93;2.30;;;15.20;99.90;;;;;;5006873;28;20469;-88
2022/07/29 02:08:22;;;;;;;4.93;2.30;;;15.20;99.90;;;;;;5013611;28;20053;-90
2022/07/29 02:10:49;;;;;;;6.70;2.40;;;15.20;99.90;;;;;;5009399;28;20100;-91
2022/07/29 02:13:17;;;;;;;5.40;2.30;;;15.20;99.90;;;;;;5028352;28;20045;-91
2022/07/29 02:15:45;;;;;;;5.38;2.25;;;15.20;99.90;;;;;;5009195;28;20049;-89
2022/07/29 02:18:15;;;;;;;6.40;2.33;;;15.20;99.90;;;;;;5013153;28;20136;-91
2022/07/29 02:20:48;;;;;;;6.10;2.22;;;15.30;99.90;;;;;;5013869;28;20477;-92
2022/07/29 02:23:17;;;;;;;5.63;2.10;;;15.20;99.90;;;;;;4995696;28;20076;-92
2022/07/29 02:25:43;;;;;;;7.53;2.50;;;15.20;99.90;;;;;;5000507;28;20422;-91
2022/07/29 02:28:09;;;;;;;7.28;2.65;;;15.20;99.90;;;;;;5015283;28;20081;-91
2022/07/29 02:30:40;;;;;;;6.80;2.40;;;15.20;99.90;;;;;;5008506;28;20049;-90
2022/07/29 02:33:07;;;;;;;6.95;2.35;;;15.20;99.90;;;;;;5018431;28;20077;-93
2022/07/29 02:35:33;;;;;;;5.35;2.30;;;15.20;99.90;;;;;;5030237;28;20034;-94
2022/07/29 02:40:43;;;;;;;6.72;2.47;;;15.10;99.90;;;;;;5010675;28;20056;-90
2022/07/29 02:43:10;;;;;;;5.68;2.67;;;15.10;99.90;;;;;;4990334;28;20099;-87
2022/07/29 02:45:36;;;;;;;6.88;2.50;;;15.10;99.90;;;;;;4989239;28;20060;-90
2022/07/29 02:48:10;;;;;;;4.88;2.33;;;15.10;99.90;;;;;;5036031;28;20045;-89
2022/07/29 02:50:41;;;;;;;6.22;2.22;;;15.10;99.90;;;;;;5018675;28;20048;-92
2022/07/29 02:53:17;;;;;;;4.65;2.20;;;15.20;99.90;;;;;;4997597;28;20402;-88
2022/07/29 02:55:48;;;;;;;6.28;2.47;;;15.10;99.90;;;;;;5001717;28;20048;-90
2022/07/29 02:58:33;;;;;;;7.25;2.40;;;14.90;99.90;;;;;;4992390;28;20049;-91
2022/07/29 03:01:03;;;;;;;5.97;2.28;;;15.00;99.90;;;;;;5025170;28;20046;-91
2022/07/29 03:03:34;;;;;;;7.40;2.30;;;15.00;99.90;;;;;;5023276;28;20289;-92
2022/07/29 03:06:02;;;;;;;5.60;2.50;;;15.00;99.90;;;;;;5020984;28;20049;-93
2022/07/29 03:08:29;;;;;;;5.90;2.25;;;15.00;99.90;;;;;;5005241;28;20123;-92
2022/07/29 03:10:55;;;;;;;7.10;2.42;;;15.00;99.90;;;;;;5024562;28;20404;-90
2022/07/29 03:13:21;;;;;;;5.15;2.20;;;15.00;99.90;;;;;;5028200;28;20061;-89
2022/07/29 03:15:48;;;;;;;6.18;2.33;;;15.00;99.90;;;;;;5007214;28;20046;-89
2022/07/29 03:18:14;;;;;;;6.38;2.60;;;15.00;99.90;;;;;;4994350;28;20049;-91
2022/07/29 03:20:40;;;;;;;6.93;2.42;;;15.00;99.90;;;;;;5023797;28;20044;-89
2022/07/29 03:23:07;;;;;;;5.45;2.50;;;15.00;99.90;;;;;;5012343;28;20060;-90
2022/07/29 03:25:33;;;;;;;6.00;2.40;;;15.00;99.90;;;;;;5017341;28;20054;-89
2022/07/29 03:27:59;;;;;;;6.20;2.30;;;15.00;99.90;;;;;;4993946;28;20056;-91
2022/07/29 03:30:25;;;;;;;6.63;2.55;;;15.00;99.90;;;;;;5009455;28;20033;-93
2022/07/29 03:32:51;;;;;;;6.03;2.40;;;14.90;99.90;;;;;;4990736;28;20197;-89
2022/07/29 03:35:17;;;;;;;5.38;2.40;;;14.90;99.90;;;;;;5010028;28;20042;-90
2022/07/29 03:37:44;;;;;;;6.20;2.40;;;14.90;99.90;;;;;;5008071;28;20060;-91
2022/07/29 03:40:15;;;;;;;6.60;2.50;;;15.00;99.90;;;;;;5007340;28;20100;-88
2022/07/29 03:42:43;;;;;;;4.97;2.13;;;14.90;99.90;;;;;;5027356;28;20052;-89
2022/07/29 03:45:13;;;;;;;4.95;2.30;;;14.90;99.90;;;;;;4994311;28;20053;-90
2022/07/29 03:47:44;;;;;;;6.18;2.50;;;14.90;99.90;;;;;;4995212;28;20049;-91
2022/07/29 03:50:13;;;;;;;7.68;2.55;;;14.90;99.90;;;;;;5009936;28;20084;-89
2022/07/29 03:52:38;;;;;;;7.00;2.63;;;14.90;99.90;;;;;;5011710;28;20172;-94
2022/07/29 03:55:05;;;;;;;4.32;2.25;;;14.90;99.90;;;;;;5028113;28;20149;-90
2022/07/29 03:57:32;;;;;;;5.72;2.53;;;14.80;99.90;;;;;;4994616;28;20165;-91
2022/07/29 04:00:00;;;;;;;4.65;2.22;;;14.80;99.90;;;;;;5007772;28;20095;-88
2022/07/29 04:02:26;;;;;;;6.57;2.40;;;14.80;99.90;;;;;;5011587;28;20304;-91
2022/07/29 04:04:52;;;;;;;6.68;2.40;;;14.80;99.90;;;;;;5008484;28;20048;-89
2022/07/29 04:07:18;;;;;;;5.25;2.90;;;14.80;99.90;;;;;;5031285;28;20513;-89
2022/07/29 04:09:43;;;;;;;6.53;2.65;;;14.90;99.90;;;;;;4995047;28;20109;-91
2022/07/29 04:12:09;;;;;;;8.35;2.50;;;14.80;99.90;;;;;;5011670;28;20305;-88
2022/07/29 04:14:36;;;;;;;6.70;2.45;;;14.80;99.90;;;;;;5012307;28;20213;-89
2022/07/29 04:17:03;;;;;;;6.85;2.53;;;14.80;99.90;;;;;;4997431;28;20041;-89
2022/07/29 04:19:28;;;;;;;5.50;2.80;;;14.80;99.90;;;;;;4996373;28;20128;-90
2022/07/29 04:21:54;;;;;;;4.65;2.13;;;14.70;99.90;;;;;;5000300;28;20445;-87
2022/07/29 04:24:20;;;;;;;6.57;2.70;;;14.80;99.90;;;;;;5000783;28;20072;-88
2022/07/29 04:26:46;;;;;;;5.70;2.47;;;14.70;99.90;;;;;;5033107;28;20050;-90
2022/07/29 04:29:13;;;;;;;7.43;2.47;;;14.80;99.90;;;;;;5030030;28;20045;-87
2022/07/29 04:31:39;;;;;;;5.88;2.50;;;14.70;99.90;;;;;;5016668;28;20041;-89
2022/07/29 04:34:05;;;;;;;6.72;2.47;;;14.80;99.90;;;;;;5009950;28;20042;-91
2022/07/29 04:36:31;;;;;;;6.30;2.38;;;14.80;99.90;;;;;;5011743;28;20453;-88
2022/07/29 04:38:56;;;;;;;6.18;2.40;;;14.80;99.90;;;;;;4994483;28;20045;-88
2022/07/29 04:41:22;;;;;;;7.75;2.45;;;14.80;99.90;;;;;;5027920;28;20052;-89
2022/07/29 04:43:47;;;;;;;5.38;2.00;;;14.80;99.90;;;;;;5025892;28;20406;-91
2022/07/29 04:46:13;;;;;;;7.13;2.70;;;14.90;99.90;;;;;;5009747;28;20490;-89
2022/07/29 04:48:38;;;;;;;7.80;2.55;;;14.90;99.90;;;;;;4993078;28;20124;-89
2022/07/29 04:51:04;;;;;;;6.93;2.50;;;14.80;99.90;;;;;;4993086;28;20513;-89
2022/07/29 04:53:30;;;;;;;7.85;2.50;;;14.80;99.90;;;;;;5008266;28;20045;-93
2022/07/29 04:55:55;;;;;;;6.78;2.28;;;14.90;99.90;;;;;;5008695;28;20528;-88
2022/07/29 04:58:23;;;;;;;5.65;2.47;;;14.80;99.90;;;;;;4990840;28;20046;-87
2022/07/29 05:00:49;;;;;;;5.35;2.20;;;14.90;99.90;;;;;;5009196;28;20128;-87
2022/07/29 05:03:14;;;;;;;6.10;2.60;;;14.90;99.90;;;;;;5027151;28;20049;-91
2022/07/29 05:05:40;;;;;;;6.25;2.45;;;14.90;99.90;;;;;;5009310;28;20048;-93
2022/07/29 05:08:06;;;;;;;5.03;2.28;;;14.90;99.90;;;;;;5004504;28;20042;-91
2022/07/29 05:10:33;;;;;;;7.32;2.35;;;14.90;99.90;;;;;;5007453;28;20099;-88
2022/07/29 05:12:59;;;;;;;7.90;2.63;;;14.90;99.90;;;;;;5022580;28;20045;-88
2022/07/29 05:15:25;;;;;;;5.00;2.50;;;15.00;99.90;;;;;;5006593;28;20052;-91
2022/07/29 05:17:50;;;;;;;5.72;2.33;;;15.00;99.90;;;;;;5000145;28;20469;-88
2022/07/29 05:20:17;;;;;;;5.30;2.60;;;15.00;99.90;;;;;;5026617;28;20123;-91
2022/07/29 05:22:43;;;;;;;7.93;2.47;;;15.00;99.90;;;;;;5025129;28;20378;-92
2022/07/29 05:25:09;;;;;;;6.13;2.38;;;15.10;99.90;;;;;;4992505;28;20123;-89
2022/07/29 05:27:36;;;;;;;6.47;2.47;;;15.10;99.90;;;;;;5008789;28;20044;-90
2022/07/29 05:30:02;;;;;;;8.13;2.70;;;15.10;99.90;;;;;;5027569;28;20073;-92
2022/07/29 05:32:28;;;;;;;6.03;2.50;;;15.10;99.90;;;;;;5027288;28;20530;-92
2022/07/29 05:34:53;;;;;;;5.60;2.55;;;15.20;99.90;;;;;;5010197;28;20116;-91
2022/07/29 05:37:19;;;;;;;6.88;2.42;;;15.20;99.90;;;;;;5007547;28;20401;-91
2022/07/29 05:39:45;;;;;;;6.68;2.35;;;15.20;99.90;;;;;;4993240;28;20422;-88
2022/07/29 05:42:10;;;;;;;7.55;2.50;;;15.20;99.90;;;;;;5023318;28;20063;-91
2022/07/29 05:44:39;;;;;;;7.00;2.60;;;15.30;99.90;;;;;;5009056;28;20390;-89
2022/07/29 05:47:06;;;;;;;6.43;2.70;;;15.30;99.90;;;;;;4986605;28;20410;-89
2022/07/29 05:49:32;;;;;;;6.15;2.42;;;15.30;99.90;;;;;;5005994;28;20061;-91
2022/07/29 05:51:58;;;;;;;5.20;2.28;;;15.40;99.90;;;;;;5006850;28;20560;-92
2022/07/29 05:54:24;;;;;;;8.02;2.90;;;15.40;99.90;;;;;;5024065;28;20044;-89
2022/07/29 05:56:50;;;;;;;6.05;2.45;;;15.40;99.90;;;;;;4990317;28;20441;-88
2022/07/29 05:59:15;;;;;;;5.40;2.40;;;15.50;99.90;;;;;;5004355;28;20045;-89
2022/07/29 06:01:41;;;;;;;8.60;2.95;;;15.50;99.90;;;;;;5004449;28;20379;-87
2022/07/29 06:04:07;;;;;;;5.97;2.40;;;15.50;99.90;;;;;;5004575;28;20045;-90
2022/07/29 06:06:33;;;;;;;6.50;2.60;;;15.60;99.90;;;;;;5007647;28;20398;-87
2022/07/29 06:09:00;;;;;;;6.80;2.45;;;15.60;99.90;;;;;;5006056;28;20394;-91
2022/07/29 06:11:25;;;;;;;6.53;2.53;;;15.60;99.90;;;;;;5007190;28;20084;-90
2022/07/29 06:13:51;;;;;;;7.80;2.45;;;15.70;99.90;;;;;;5006358;28;20088;-91
2022/07/29 06:16:17;;;;;;;5.30;2.40;;;15.80;99.90;;;;;;4988973;28;20040;-88
2022/07/29 06:18:43;;;;;;;5.65;2.55;;;15.90;99.90;;;;;;4985708;28;20046;-89
2022/07/29 06:21:11;;;;;;;6.80;3.17;;;16.00;99.90;;;;;;5009595;28;20042;-93
2022/07/29 06:23:38;;;;;;;7.32;2.47;;;16.10;99.90;;;;;;5009331;28;20540;-90
2022/07/29 06:26:05;;;;;;;6.38;2.30;;;16.10;99.90;;;;;;5007570;28;20804;-90
2022/07/29 06:28:31;;;;;;;7.63;2.47;;;16.20;99.90;;;;;;4992414;28;20140;-91
2022/07/29 06:30:56;;;;;;;6.38;2.72;;;16.20;99.90;;;;;;5019199;28;20069;-90
2022/07/29 06:33:22;;;;;;;5.43;2.47;;;16.30;99.90;;;;;;4987336;28;20069;-91
2022/07/29 06:35:48;;;;;;;6.35;2.60;;;16.30;99.90;;;;;;4983822;28;20077;-89
2022/07/29 06:38:14;;;;;;;5.22;2.42;;;16.40;99.90;;;;;;5017379;28;20049;-90
2022/07/29 06:41:00;;;;;;;8.07;2.72;;;16.40;99.90;;;;;;5002999;28;20110;-92
2022/07/29 06:43:31;;;;;;;6.82;2.85;;;16.50;99.90;;;;;;5019235;28;20064;-91
2022/07/29 06:45:59;;;;;;;5.03;2.33;;;16.50;99.90;;;;;;4985670;28;20071;-89
2022/07/29 06:48:24;;;;;;;8.38;3.00;;;16.50;99.90;;;;;;4987857;28;20125;-91
2022/07/29 06:50:50;;;;;;;7.40;2.45;;;16.50;99.90;;;;;;5001334;28;20136;-90
2022/07/29 06:53:16;;;;;;;6.78;2.30;;;16.60;99.90;;;;;;5002064;28;20467;-90
2022/07/29 06:55:42;;;;;;;7.22;2.53;;;16.60;99.90;;;;;;4965495;28;20037;-91
2022/07/29 06:58:08;;;;;;;6.88;2.40;;;16.70;99.90;;;;;;5021095;28;20046;-93
2022/07/29 07:00:35;;;;;;;8.07;2.55;;;16.70;99.90;;;;;;5007194;28;20851;-89
2022/07/29 07:03:00;;;;;;;7.38;2.63;;;16.70;99.90;;;;;;5006195;28;20401;-92
2022/07/29 07:05:26;;;;;;;7.47;2.70;;;16.70;99.90;;;;;;5009491;28;20045;-91
2022/07/29 07:07:52;;;;;;;6.53;2.70;;;16.80;99.90;;;;;;4987421;28;20041;-92
2022/07/29 07:10:17;;;;;;;8.52;2.58;;;16.80;99.90;;;;;;4989184;28;20114;-92
2022/07/29 07:12:43;;;;;;;8.10;2.67;;;16.90;99.90;;;;;;5008944;28;20045;-89
2022/07/29 07:15:09;;;;;;;7.00;2.60;;;16.90;99.90;;;;;;4990121;28;20049;-90
2022/07/29 07:17:35;;;;;;;6.95;2.42;;;17.00;99.90;;;;;;4987180;28;20046;-89
2022/07/29 07:20:01;;;;;;;7.13;2.60;;;16.90;99.90;;;;;;5003649;28;20065;-92
2022/07/29 07:22:26;;;;;;;5.88;2.38;;;16.90;99.90;;;;;;5003234;28;20045;-92
2022/07/29 07:24:52;;;;;;;6.15;2.42;;;16.90;99.90;;;;;;5023485;28;20065;-89
2022/07/29 07:27:18;;;;;;;6.50;2.78;;;16.90;99.90;;;;;;4988050;28;20545;-88
2022/07/29 07:29:43;;;;;;;7.90;2.40;;;17.00;99.90;;;;;;5003972;28;20056;-87
2022/07/29 07:32:09;;;;;;;7.53;2.50;;;16.80;99.90;;;;;;4989376;28;20384;-88
2022/07/29 07:34:34;;;;;;;7.78;2.90;;;17.00;99.90;;;;;;5003892;28;20441;-86
2022/07/29 07:37:00;;;;;;;6.47;2.78;;;17.10;99.90;;;;;;5022464;28;20040;-90
2022/07/29 07:39:26;;;;;;;9.63;2.72;;;17.10;99.90;;;;;;5007020;28;20072;-87
2022/07/29 07:41:52;;;;;;;7.32;2.80;;;17.20;99.90;;;;;;5023819;28;20558;-88
2022/07/29 07:44:18;;;;;;;6.38;2.50;;;17.20;99.90;;;;;;5005250;28;20096;-86
2022/07/29 07:46:44;;;;;;;6.75;2.65;;;17.30;99.90;;;;;;5024777;28;20077;-89
2022/07/29 07:49:11;;;;;;;7.18;2.80;;;17.40;99.90;;;;;;4997323;28;20052;-93
2022/07/29 07:51:36;;;;;;;6.00;2.50;;;17.40;99.90;;;;;;5010485;28;20111;-94
2022/07/29 07:54:02;;;;;;;6.30;2.75;;;17.40;99.90;;;;;;5010331;28;20436;-88
2022/07/29 07:56:28;;;;;;;7.30;3.20;;;17.30;99.90;;;;;;4989748;28;20053;-87
2022/07/29 07:58:53;;;;;;;8.90;3.05;;;17.30;99.90;;;;;;4997522;28;20049;-91
2022/07/29 08:01:22;;;;;;;7.38;2.60;;;17.30;99.90;;;;;;5026485;28;20056;-92
2022/07/29 08:03:48;;;;;;;7.88;2.80;;;17.30;99.90;;;;;;5008013;28;20060;-91
2022/07/29 08:06:14;;;;;;;6.75;2.67;;;17.30;99.90;;;;;;4991516;28;20119;-93
2022/07/29 08:08:40;;;;;;;6.80;2.30;;;17.20;99.90;;;;;;5033186;28;20430;-89
2022/07/29 08:11:06;;;;;;;5.90;2.60;;;17.40;99.90;;;;;;4993017;28;20033;-90
2022/07/29 08:13:32;;;;;;;8.13;2.83;;;17.40;99.90;;;;;;5003378;28;20042;-91
2022/07/29 08:16:00;;;;;;;6.97;2.92;;;17.40;99.90;;;;;;4994266;28;20052;-90
2022/07/29 08:18:30;;;;;;;5.97;2.65;;;17.40;99.90;;;;;;4994735;28;20503;-93
2022/07/29 08:20:57;;;;;;;5.82;2.75;;;17.50;99.90;;;;;;4994479;28;20393;-92
2022/07/29 08:23:22;;;;;;;7.68;2.70;;;17.60;99.90;;;;;;5031364;28;20060;-91
2022/07/29 08:25:49;;;;;;;6.43;2.63;;;17.60;99.90;;;;;;5006554;28;20053;-92
2022/07/29 08:28:15;;;;;;;7.03;2.80;;;17.70;99.90;;;;;;4991957;28;20052;-92
2022/07/29 08:30:40;;;;;;;7.28;2.63;;;17.90;99.90;;;;;;4990454;28;20045;-91
2022/07/29 08:33:06;;;;;;;6.75;2.70;;;17.90;99.90;;;;;;5003787;28;20149;-87
2022/07/29 08:35:32;;;;;;;6.55;2.53;;;18.00;99.90;;;;;;4997496;28;20136;-89
2022/07/29 08:37:58;;;;;;;6.00;2.58;;;18.10;99.90;;;;;;4990269;28;20053;-89
2022/07/29 08:40:24;;;;;;;5.32;2.42;;;18.20;99.90;;;;;;4993675;28;20038;-89
2022/07/29 08:42:50;;;;;;;7.38;2.88;;;18.30;99.90;;;;;;5005842;28;20080;-92
2022/07/29 08:45:16;;;;;;;6.03;2.30;;;18.20;99.90;;;;;;4991814;28;20048;-91
2022/07/29 08:47:45;;;;;;;6.45;2.60;;;18.40;99.90;;;;;;4989446;28;20038;-91
2022/07/29 08:50:11;;;;;;;7.55;2.88;;;18.40;99.90;;;;;;5009171;28;20049;-88
2022/07/29 08:52:39;;;;;;;6.57;2.70;;;18.50;99.90;;;;;;5008975;28;20271;-89
2022/07/29 08:55:07;;;;;;;7.00;2.75;;;18.50;99.90;;;;;;5009025;28;20048;-90
2022/07/29 08:57:33;;;;;;;8.13;3.22;;;18.60;99.90;;;;;;5009425;28;20049;-89
2022/07/29 09:00:01;;;;;;;9.10;2.58;;;18.50;99.90;;;;;;4989339;28;20060;-92
2022/07/29 09:02:32;;;;;;;7.63;2.85;;;18.50;99.90;;;;;;5009185;28;20041;-91
2022/07/29 09:05:02;;;;;;;7.28;3.20;;;18.50;99.90;;;;;;5012140;28;20474;-93
2022/07/29 09:07:28;;;;;;;7.85;3.38;;;18.60;99.90;;;;;;5007890;28;20100;-90
2022/07/29 09:09:54;;;;;;;8.02;3.20;;;18.50;99.90;;;;;;5000388;28;20037;-87
2022/07/29 09:12:22;;;;;;;7.95;2.70;;;18.40;99.90;;;;;;4997587;28;20045;-92
2022/07/29 09:14:47;;;;;;;8.40;3.13;;;18.30;99.90;;;;;;5005171;28;20041;-88
2022/07/29 09:17:16;;;;;;;6.80;2.90;;;18.40;99.90;;;;;;5006799;28;20056;-90
2022/07/29 09:19:42;;;;;;;8.50;3.40;;;18.30;99.90;;;;;;5006491;28;20053;-88
2022/07/29 09:22:09;;;;;;;10.27;2.67;;;18.30;99.90;;;;;;5025631;28;20498;-88
2022/07/29 09:24:47;;;;;;;6.50;3.00;;;18.40;99.90;;;;;;5009277;28;20080;-89
2022/07/29 09:27:26;;;;;;;5.53;2.63;;;18.40;99.90;;;;;;5008719;28;20045;-87
2022/07/29 09:30:05;;;;;;;9.30;3.00;;;18.40;99.90;;;;;;5005261;28;20060;-88
2022/07/29 09:32:31;;;;;;;6.22;2.67;;;18.40;99.90;;;;;;5012131;28;20112;-87
2022/07/29 09:35:17;;;;;;;6.70;2.70;;;18.50;99.90;;;;;;5004965;28;20041;-87
2022/07/29 09:37:44;;;;;;;5.82;2.40;;;18.50;99.90;;;;;;5036508;28;20037;-91
2022/07/29 09:40:15;;;;;;;6.93;2.50;;;18.50;99.90;;;;;;5028899;28;20440;-90
2022/07/29 09:42:41;;;;;;;6.13;2.63;;;18.50;99.90;;;;;;5005529;28;20037;-90
2022/07/29 09:45:07;;;;;;;8.80;2.90;;;18.50;99.90;;;;;;5010654;28;20536;-87
2022/07/29 09:47:48;;;;;;;8.00;2.90;;;18.60;99.90;;;;;;5003924;28;20038;-88
2022/07/29 09:50:14;;;;;;;7.60;2.90;;;18.60;99.90;;;;;;4993816;28;20038;-91
2022/07/29 09:52:51;;;;;;;6.95;2.58;;;18.50;99.90;;;;;;4991684;28;20103;-88
2022/07/29 09:55:18;;;;;;;5.75;2.60;;;18.50;99.90;;;;;;5010603;28;20084;-95
2022/07/29 09:57:45;;;;;;;8.32;3.05;;;18.50;99.90;;;;;;5028817;28;20121;-88
2022/07/29 10:00:17;;;;;;;7.65;3.20;;;18.60;99.90;;;;;;4992329;28;20128;-94
2022/07/29 10:02:44;;;;;;;5.80;2.72;;;18.60;99.90;;;;;;5005680;28;20143;-90
2022/07/29 10:05:19;;;;;;;8.25;2.90;;;18.60;99.90;;;;;;4994617;28;20045;-90
2022/07/29 10:07:46;;;;;;;6.43;2.67;;;18.60;99.90;;;;;;4991053;28;20113;-92
2022/07/29 10:10:19;;;;;;;7.70;2.83;;;18.70;99.90;;;;;;4993725;28;20065;-90
2022/07/29 10:12:59;;;;;;;7.15;2.88;;;18.60;99.90;;;;;;5031067;28;20381;-94
2022/07/29 10:15:27;;;;;;;6.40;2.90;;;18.70;99.90;;;;;;4983811;28;20060;-93
2022/07/29 10:17:54;;;;;;;8.38;3.10;;;18.80;99.90;;;;;;4989034;28;20079;-93
2022/07/29 10:20:21;;;;;;;7.88;3.08;;;18.80;99.90;;;;;;5029597;28;20045;-86
2022/07/29 10:22:48;;;;;;;6.38;3.00;;;18.90;99.90;;;;;;4984771;28;20144;-88
2022/07/29 10:25:15;;;;;;;6.97;2.75;;;19.00;99.90;;;;;;4979528;28;20057;-88
2022/07/29 10:27:42;;;;;;;6.88;2.88;;;19.10;99.90;;;;;;4991557;28;20368;-89
2022/07/29 10:30:08;;;;;;;9.13;3.10;;;19.10;99.90;;;;;;4983544;28;20077;-92
2022/07/29 10:32:41;;;;;;;8.43;2.70;;;19.20;99.90;;;;;;4991555;28;20499;-87
2022/07/29 10:35:12;;;;;;;9.82;3.50;;;19.30;99.90;;;;;;4975289;28;20046;-90
2022/07/29 10:37:56;;;;;;;8.02;3.10;;;19.30;99.90;;;;;;5014579;28;20455;-89
2022/07/29 10:43:45;;;;;;;7.35;2.90;;;19.40;99.90;;;;;;4995669;28;20057;-90
2022/07/29 10:46:12;;;;;;;6.55;2.80;;;19.50;99.90;;;;;;4992073;28;20044;-88
2022/07/29 10:49:15;;;;;;;6.82;3.30;;;19.50;99.90;;;;;;4986396;28;20050;-89
2022/07/29 10:51:51;;;;;;;7.75;3.10;;;19.60;99.90;;;;;;4984080;28;20045;-89
2022/07/29 10:54:39;;;;;;;7.80;3.13;;;19.70;99.90;;;;;;4989315;28;20053;-89
2022/07/29 10:57:20;;;;;;;6.63;2.88;;;19.60;99.90;;;;;;4971346;28;20045;-89
2022/07/29 11:00:10;;;;;;;6.43;2.90;;;19.70;99.90;;;;;;4975195;28;20054;-92
2022/07/29 11:02:36;;;;;;;7.05;2.88;;;19.80;99.90;;;;;;4974265;28;20243;-88
2022/07/29 11:05:19;;;;;;;7.03;2.90;;;19.80;99.90;;;;;;5012736;28;20100;-89
2022/07/29 11:08:17;;;;;;;6.32;2.72;;;19.90;99.90;;;;;;4992511;28;20096;-88
2022/07/29 11:10:43;;;;;;;7.63;2.88;;;20.00;99.90;;;;;;4947191;28;20062;-91
2022/07/29 11:13:09;;;;;;;6.47;2.78;;;20.00;99.90;;;;;;4969731;28;20038;-88
2022/07/29 11:15:57;;;;;;;8.57;3.10;;;20.10;99.90;;;;;;4976136;28;20050;-88
2022/07/29 11:18:23;;;;;;;8.38;2.72;;;20.20;99.90;;;;;;4992923;28;20172;-87
2022/07/29 11:20:52;;;;;;;8.63;2.90;;;20.20;99.90;;;;;;5009588;28;20038;-89
2022/07/29 11:23:24;;;;;;;7.82;3.05;;;20.30;99.90;;;;;;5000087;28;20153;-89
2022/07/29 11:26:27;;;;;;;9.00;3.25;;;20.30;99.90;;;;;;5015719;28;20057;-89
2022/07/29 11:28:55;;;;;;;7.25;3.05;;;20.30;99.90;;;;;;5008280;28;20053;-87
2022/07/29 11:32:10;;;;;;;10.93;3.28;;;20.40;99.90;;;;;;5043498;28;20053;-89
2022/07/29 11:34:40;;;;;;;8.43;3.38;;;20.50;99.90;;;;;;4938047;29;20048;-88
2022/07/29 11:37:12;;;;;;;6.53;2.72;;;20.50;99.90;;;;;;4944498;29;20051;-87
2022/07/29 11:39:46;;;;;;;8.23;3.10;;;20.60;99.90;;;;;;4931141;29;20103;-91
2022/07/29 11:42:21;;;;;;;10.75;3.00;;;20.70;99.90;;;;;;4947823;29;20133;-90
2022/07/29 11:45:20;;;;;;;9.30;3.75;;;20.80;99.90;;;;;;4931418;29;20047;-89
2022/07/29 11:47:45;;;;;;;7.00;2.83;;;20.90;99.90;;;;;;4927100;29;20114;-87
2022/07/29 11:50:14;;;;;;;7.28;2.97;;;20.90;99.90;;;;;;4921750;29;20404;-89
2022/07/29 11:52:42;;;;;;;7.05;3.05;;;21.00;99.90;;;;;;4932559;29;20133;-86
2022/07/29 11:55:12;;;;;;;6.45;3.20;;;21.10;99.90;;;;;;4947823;29;20751;-88
2022/07/29 11:57:49;;;;;;;7.97;3.65;;;21.10;99.90;;;;;;4948240;29;20087;-89
2022/07/29 12:00:35;;;;;;;7.82;3.10;;;21.10;99.90;;;;;;4924780;29;20069;-89
2022/07/29 12:03:04;;;;;;;8.00;3.38;;;21.20;99.90;;;;;;4943644;29;20051;-87
2022/07/29 12:05:36;;;;;;;9.32;3.35;;;21.20;99.90;;;;;;4998328;28;20069;-87
2022/07/29 12:08:22;;;;;;;10.93;3.30;;;21.20;99.90;;;;;;4994709;28;20132;-86
2022/07/29 12:10:50;;;;;;;9.05;3.50;;;21.30;99.90;;;;;;5022190;28;20048;-88
2022/07/29 12:13:18;;;;;;;9.57;3.47;;;21.30;99.90;;;;;;5023461;28;20037;-89
2022/07/29 12:15:56;;;;;;;8.88;3.25;;;21.30;99.90;;;;;;5035194;28;20087;-88
2022/07/29 12:18:22;;;;;;;8.32;3.30;;;21.40;99.90;;;;;;5030831;28;20482;-91
2022/07/29 12:20:48;;;;;;;7.75;2.92;;;21.50;99.90;;;;;;5011360;28;20095;-90
2022/07/29 12:23:16;;;;;;;8.02;3.45;;;21.60;99.90;;;;;;5017215;28;20155;-89
2022/07/29 12:25:43;;;;;;;9.10;3.35;;;21.60;99.90;;;;;;5011894;28;20060;-88
2022/07/29 12:28:15;;;;;;;7.80;2.90;;;21.70;99.90;;;;;;5045514;28;20056;-88
2022/07/29 12:30:51;;;;;;;9.48;3.30;;;21.90;99.90;;;;;;4991799;28;20083;-90
2022/07/29 12:33:28;;;;;;;8.38;4.00;;;21.90;99.90;;;;;;5011677;28;20368;-90
2022/07/29 12:35:58;;;;;;;10.48;3.47;;;22.00;99.90;;;;;;5026998;28;20045;-88
2022/07/29 12:38:24;;;;;;;9.48;3.70;;;21.90;99.90;;;;;;5024451;28;20045;-89
2022/07/29 12:40:51;;;;;;;9.43;3.72;;;22.00;99.90;;;;;;5002859;28;20071;-90
2022/07/29 12:43:19;;;;;;;11.55;4.03;;;22.10;99.90;;;;;;5029699;28;20491;-88
2022/07/29 12:45:49;;;;;;;8.43;3.78;;;22.00;99.90;;;;;;5020712;28;20045;-89
2022/07/29 12:48:16;;;;;;;9.80;3.67;;;22.00;99.90;;;;;;5012670;28;20106;-91
2022/07/29 12:50:59;;;;;;;9.80;3.92;;;22.00;99.90;;;;;;4993755;28;20074;-89
2022/07/29 12:53:26;;;;;;;8.40;3.88;;;22.10;99.90;;;;;;5009863;28;20087;-89
2022/07/29 12:55:53;;;;;;;8.98;3.90;;;22.10;99.90;;;;;;5026295;28;20045;-89
2022/07/29 12:58:36;;;;;;;8.80;3.60;;;22.20;99.90;;;;;;5007713;28;20046;-88
2022/07/29 13:01:14;;;;;;;7.70;3.60;;;22.30;99.90;;;;;;5005784;28;20060;-89
2022/07/29 13:03:51;;;;;;;9.48;3.92;;;22.40;99.90;;;;;;4994667;28;20056;-89
2022/07/29 13:06:41;;;;;;;6.45;2.88;;;22.40;99.90;;;;;;5016254;28;20049;-91